الصفحة الرئيسية
METAR-TAF:

METAR-TAF

مطار :

Hughenden, أستراليا

دائرة عرض: 20-48-54S, خط طول: 144-13-30E, ارتفاع: 318 متر

مراقبة الطقس الحالي

تاريخ ووقت الإصدار 1ساعة و 0 دقيقة قبل الساعة 20:00UTC
ريح 6 عقدة من الشمال/الشمال الشرقي
درجة الحرارة 8°درجة مئوية
الرطوبة 81%
ضغط 1019 hPa
الرؤية 10 كم أو أكثر

METAR: YHUG 252000Z AUTO 02006KT 9999 // NCD 08/05 Q1019

زمن: 07:00 (21:00 UTC)


TAF: مفقودة

أرصاد الطقس والتوقعات من أكثر من 4000 مطار (تقارير الطقس للمطار METAR والتنبؤ بالطقس بالمطارTAF).

المحطات المتاحة هي النقط الصفراء والحمراء على الخريطة.

حرك المؤشر فوق النقطة لمعرفة اسم المحطة.

ثم انقر لمعرفة أرصاد وتوقعات الطقس.

لتغيير الخارطة: اضغط على الأزرار الخضراء مع رمز الصليب الأسود للتكبير. على الزر الأخضر مع شرطة للتصغير، أو على الأسهم الخضراء للخرائط المجاورة.


METAR-TAF: